sensor_id;sensor_type;location;lat;lon;timestamp;temperature;humidity
40255;DHT22;25973;52.368;4.940;2022-07-01T00:00:31;17.10;99.90
40255;DHT22;25973;52.368;4.940;2022-07-01T00:02:57;17.10;99.90
40255;DHT22;25973;52.368;4.940;2022-07-01T00:05:23;17.00;99.90
40255;DHT22;25973;52.368;4.940;2022-07-01T00:07:48;17.00;99.90
40255;DHT22;25973;52.368;4.940;2022-07-01T00:10:14;17.00;99.90
40255;DHT22;25973;52.368;4.940;2022-07-01T00:12:42;17.00;99.90
40255;DHT22;25973;52.368;4.940;2022-07-01T00:15:09;17.00;99.90
40255;DHT22;25973;52.368;4.940;2022-07-01T00:17:35;17.00;99.90
40255;DHT22;25973;52.368;4.940;2022-07-01T00:20:02;17.00;99.90
40255;DHT22;25973;52.368;4.940;2022-07-01T00:22:28;16.90;99.90
40255;DHT22;25973;52.368;4.940;2022-07-01T00:24:54;16.90;99.90
40255;DHT22;25973;52.368;4.940;2022-07-01T00:27:20;16.90;99.90
40255;DHT22;25973;52.368;4.940;2022-07-01T00:29:48;16.90;99.90
40255;DHT22;25973;52.368;4.940;2022-07-01T00:32:14;16.90;99.90
40255;DHT22;25973;52.368;4.940;2022-07-01T00:34:39;16.90;99.90
40255;DHT22;25973;52.368;4.940;2022-07-01T00:37:05;16.80;99.90
40255;DHT22;25973;52.368;4.940;2022-07-01T00:39:31;16.80;99.90
40255;DHT22;25973;52.368;4.940;2022-07-01T00:42:04;16.80;99.90
40255;DHT22;25973;52.368;4.940;2022-07-01T00:44:30;16.70;99.90
40255;DHT22;25973;52.368;4.940;2022-07-01T00:46:58;16.70;99.90
40255;DHT22;25973;52.368;4.940;2022-07-01T00:49:25;16.60;99.90
40255;DHT22;25973;52.368;4.940;2022-07-01T00:51:52;16.50;99.90
40255;DHT22;25973;52.368;4.940;2022-07-01T00:54:19;16.50;99.90
40255;DHT22;25973;52.368;4.940;2022-07-01T00:56:45;16.50;99.90
40255;DHT22;25973;52.368;4.940;2022-07-01T00:59:11;16.40;99.90
40255;DHT22;25973;52.368;4.940;2022-07-01T01:01:36;16.40;99.90
40255;DHT22;25973;52.368;4.940;2022-07-01T01:04:03;16.40;99.90
40255;DHT22;25973;52.368;4.940;2022-07-01T01:06:28;16.30;99.90
40255;DHT22;25973;52.368;4.940;2022-07-01T01:08:54;16.30;99.90
40255;DHT22;25973;52.368;4.940;2022-07-01T01:11:20;16.30;99.90
40255;DHT22;25973;52.368;4.940;2022-07-01T01:13:45;16.20;99.90
40255;DHT22;25973;52.368;4.940;2022-07-01T01:16:19;16.20;99.90
40255;DHT22;25973;52.368;4.940;2022-07-01T01:18:45;16.20;99.90
40255;DHT22;25973;52.368;4.940;2022-07-01T01:21:10;16.20;99.90
40255;DHT22;25973;52.368;4.940;2022-07-01T01:23:36;16.10;99.90
40255;DHT22;25973;52.368;4.940;2022-07-01T01:26:02;16.10;99.90
40255;DHT22;25973;52.368;4.940;2022-07-01T01:28:28;16.10;99.90
40255;DHT22;25973;52.368;4.940;2022-07-01T01:30:57;16.00;99.90
40255;DHT22;25973;52.368;4.940;2022-07-01T01:33:22;16.10;99.90
40255;DHT22;25973;52.368;4.940;2022-07-01T01:35:48;16.20;99.90
40255;DHT22;25973;52.368;4.940;2022-07-01T01:38:13;16.20;99.90
40255;DHT22;25973;52.368;4.940;2022-07-01T01:40:39;16.20;99.90
40255;DHT22;25973;52.368;4.940;2022-07-01T01:43:04;16.20;99.90
40255;DHT22;25973;52.368;4.940;2022-07-01T01:45:30;16.20;99.90
40255;DHT22;25973;52.368;4.940;2022-07-01T01:47:56;16.10;99.90
40255;DHT22;25973;52.368;4.940;2022-07-01T01:50:21;16.10;99.90
40255;DHT22;25973;52.368;4.940;2022-07-01T01:52:47;16.10;99.90
40255;DHT22;25973;52.368;4.940;2022-07-01T01:55:12;16.10;99.90
40255;DHT22;25973;52.368;4.940;2022-07-01T01:57:38;16.00;99.90
40255;DHT22;25973;52.368;4.940;2022-07-01T02:00:06;16.00;99.90
40255;DHT22;25973;52.368;4.940;2022-07-01T02:02:33;16.00;99.90
40255;DHT22;25973;52.368;4.940;2022-07-01T02:05:06;15.90;99.90
40255;DHT22;25973;52.368;4.940;2022-07-01T02:07:32;15.90;99.90
40255;DHT22;25973;52.368;4.940;2022-07-01T02:09:57;15.90;99.90
40255;DHT22;25973;52.368;4.940;2022-07-01T02:12:23;15.90;99.90
40255;DHT22;25973;52.368;4.940;2022-07-01T02:14:48;15.80;99.90
40255;DHT22;25973;52.368;4.940;2022-07-01T02:17:14;15.90;99.90
40255;DHT22;25973;52.368;4.940;2022-07-01T02:19:39;15.80;99.90
40255;DHT22;25973;52.368;4.940;2022-07-01T02:22:05;15.80;99.90
40255;DHT22;25973;52.368;4.940;2022-07-01T02:24:31;15.80;99.90
40255;DHT22;25973;52.368;4.940;2022-07-01T02:26:56;15.80;99.90
40255;DHT22;25973;52.368;4.940;2022-07-01T02:29:22;15.80;99.90
40255;DHT22;25973;52.368;4.940;2022-07-01T02:31:47;15.80;99.90
40255;DHT22;25973;52.368;4.940;2022-07-01T02:34:13;15.80;99.90
40255;DHT22;25973;52.368;4.940;2022-07-01T02:36:38;15.80;99.90
40255;DHT22;25973;52.368;4.940;2022-07-01T02:39:04;15.80;99.90
40255;DHT22;25973;52.368;4.940;2022-07-01T02:41:29;15.80;99.90
40255;DHT22;25973;52.368;4.940;2022-07-01T02:43:55;15.80;99.90
40255;DHT22;25973;52.368;4.940;2022-07-01T02:46:24;15.80;99.90
40255;DHT22;25973;52.368;4.940;2022-07-01T02:48:49;15.80;99.90
40255;DHT22;25973;52.368;4.940;2022-07-01T02:51:15;15.70;99.90
40255;DHT22;25973;52.368;4.940;2022-07-01T02:53:40;15.70;99.90
40255;DHT22;25973;52.368;4.940;2022-07-01T02:56:06;15.80;99.90
40255;DHT22;25973;52.368;4.940;2022-07-01T02:58:34;15.70;99.90
40255;DHT22;25973;52.368;4.940;2022-07-01T03:01:00;15.70;99.90
40255;DHT22;25973;52.368;4.940;2022-07-01T03:03:25;15.60;99.90
40255;DHT22;25973;52.368;4.940;2022-07-01T03:05:51;15.60;99.90
40255;DHT22;25973;52.368;4.940;2022-07-01T03:08:16;15.60;99.90
40255;DHT22;25973;52.368;4.940;2022-07-01T03:10:42;15.60;99.90
40255;DHT22;25973;52.368;4.940;2022-07-01T03:13:07;15.60;99.90
40255;DHT22;25973;52.368;4.940;2022-07-01T03:15:33;15.60;99.90
40255;DHT22;25973;52.368;4.940;2022-07-01T03:17:59;15.60;99.90
40255;DHT22;25973;52.368;4.940;2022-07-01T03:20:27;15.60;99.90
40255;DHT22;25973;52.368;4.940;2022-07-01T03:22:52;15.60;99.90
40255;DHT22;25973;52.368;4.940;2022-07-01T03:25:24;15.60;99.90
40255;DHT22;25973;52.368;4.940;2022-07-01T03:27:49;15.60;99.90
40255;DHT22;25973;52.368;4.940;2022-07-01T03:30:15;15.60;99.90
40255;DHT22;25973;52.368;4.940;2022-07-01T03:32:43;15.60;99.90
40255;DHT22;25973;52.368;4.940;2022-07-01T03:35:09;15.60;99.90
40255;DHT22;25973;52.368;4.940;2022-07-01T03:37:54;15.50;99.90
40255;DHT22;25973;52.368;4.940;2022-07-01T03:40:20;15.50;99.90
40255;DHT22;25973;52.368;4.940;2022-07-01T03:42:46;15.50;99.90
40255;DHT22;25973;52.368;4.940;2022-07-01T03:45:12;15.50;99.90
40255;DHT22;25973;52.368;4.940;2022-07-01T03:47:37;15.50;99.90
40255;DHT22;25973;52.368;4.940;2022-07-01T03:50:03;15.50;99.90
40255;DHT22;25973;52.368;4.940;2022-07-01T03:52:29;15.60;99.90
40255;DHT22;25973;52.368;4.940;2022-07-01T03:54:54;15.60;99.90
40255;DHT22;25973;52.368;4.940;2022-07-01T03:57:22;15.60;99.90
40255;DHT22;25973;52.368;4.940;2022-07-01T03:59:47;15.60;99.90
40255;DHT22;25973;52.368;4.940;2022-07-01T04:02:13;15.60;99.90
40255;DHT22;25973;52.368;4.940;2022-07-01T04:04:38;15.60;99.90
40255;DHT22;25973;52.368;4.940;2022-07-01T04:07:05;15.70;99.90
40255;DHT22;25973;52.368;4.940;2022-07-01T04:09:32;15.60;99.90
40255;DHT22;25973;52.368;4.940;2022-07-01T04:11:58;15.60;99.90
40255;DHT22;25973;52.368;4.940;2022-07-01T04:14:23;15.60;99.90
40255;DHT22;25973;52.368;4.940;2022-07-01T04:16:54;15.60;99.90
40255;DHT22;25973;52.368;4.940;2022-07-01T04:19:20;15.60;99.90
40255;DHT22;25973;52.368;4.940;2022-07-01T04:21:46;15.70;99.90
40255;DHT22;25973;52.368;4.940;2022-07-01T04:24:30;15.70;99.90
40255;DHT22;25973;52.368;4.940;2022-07-01T04:26:58;15.60;99.90
40255;DHT22;25973;52.368;4.940;2022-07-01T04:29:24;15.70;99.90
40255;DHT22;25973;52.368;4.940;2022-07-01T04:31:50;15.70;99.90
40255;DHT22;25973;52.368;4.940;2022-07-01T04:34:16;15.70;99.90
40255;DHT22;25973;52.368;4.940;2022-07-01T04:36:42;15.70;99.90
40255;DHT22;25973;52.368;4.940;2022-07-01T04:39:07;15.70;99.90
40255;DHT22;25973;52.368;4.940;2022-07-01T04:41:33;15.80;99.90
40255;DHT22;25973;52.368;4.940;2022-07-01T04:44:19;15.80;99.90
40255;DHT22;25973;52.368;4.940;2022-07-01T04:46:44;15.80;99.90
40255;DHT22;25973;52.368;4.940;2022-07-01T04:49:10;15.90;99.90
40255;DHT22;25973;52.368;4.940;2022-07-01T04:51:35;16.10;99.90
40255;DHT22;25973;52.368;4.940;2022-07-01T04:54:02;16.20;99.90
40255;DHT22;25973;52.368;4.940;2022-07-01T04:56:28;16.40;99.90
40255;DHT22;25973;52.368;4.940;2022-07-01T04:58:55;16.50;99.90
40255;DHT22;25973;52.368;4.940;2022-07-01T05:01:20;16.70;99.90
40255;DHT22;25973;52.368;4.940;2022-07-01T05:03:46;16.80;99.90
40255;DHT22;25973;52.368;4.940;2022-07-01T05:06:12;17.10;99.90
40255;DHT22;25973;52.368;4.940;2022-07-01T05:08:37;17.40;99.90
40255;DHT22;25973;52.368;4.940;2022-07-01T05:11:03;17.70;99.90
40255;DHT22;25973;52.368;4.940;2022-07-01T05:13:28;18.10;99.90
40255;DHT22;25973;52.368;4.940;2022-07-01T05:15:54;18.50;99.90
40255;DHT22;25973;52.368;4.940;2022-07-01T05:18:20;18.90;99.90
40255;DHT22;25973;52.368;4.940;2022-07-01T05:21:04;19.30;99.90
40255;DHT22;25973;52.368;4.940;2022-07-01T05:23:48;19.60;99.90
40255;DHT22;25973;52.368;4.940;2022-07-01T05:26:13;20.00;99.90
40255;DHT22;25973;52.368;4.940;2022-07-01T05:28:43;20.30;99.90
40255;DHT22;25973;52.368;4.940;2022-07-01T05:31:09;20.50;99.90
40255;DHT22;25973;52.368;4.940;2022-07-01T05:33:34;20.60;99.90
40255;DHT22;25973;52.368;4.940;2022-07-01T05:36:00;20.80;99.90
40255;DHT22;25973;52.368;4.940;2022-07-01T05:38:26;20.70;99.90
40255;DHT22;25973;52.368;4.940;2022-07-01T05:40:52;20.50;99.90
40255;DHT22;25973;52.368;4.940;2022-07-01T05:43:19;20.30;99.90
40255;DHT22;25973;52.368;4.940;2022-07-01T05:45:45;20.10;99.90
40255;DHT22;25973;52.368;4.940;2022-07-01T05:48:10;19.90;99.90
40255;DHT22;25973;52.368;4.940;2022-07-01T05:50:36;19.80;99.90
40255;DHT22;25973;52.368;4.940;2022-07-01T05:53:02;19.70;99.90
40255;DHT22;25973;52.368;4.940;2022-07-01T05:55:28;19.70;99.90
40255;DHT22;25973;52.368;4.940;2022-07-01T05:57:54;19.70;99.90
40255;DHT22;25973;52.368;4.940;2022-07-01T06:00:19;19.70;99.90
40255;DHT22;25973;52.368;4.940;2022-07-01T06:02:45;19.70;99.90
40255;DHT22;25973;52.368;4.940;2022-07-01T06:05:10;19.70;99.90
40255;DHT22;25973;52.368;4.940;2022-07-01T06:07:41;19.60;99.90
40255;DHT22;25973;52.368;4.940;2022-07-01T06:10:08;19.60;99.90
40255;DHT22;25973;52.368;4.940;2022-07-01T06:12:35;19.50;99.90
40255;DHT22;25973;52.368;4.940;2022-07-01T06:15:01;19.50;99.90
40255;DHT22;25973;52.368;4.940;2022-07-01T06:17:26;19.50;99.90
40255;DHT22;25973;52.368;4.940;2022-07-01T06:19:52;19.70;99.90
40255;DHT22;25973;52.368;4.940;2022-07-01T06:22:18;19.80;99.90
40255;DHT22;25973;52.368;4.940;2022-07-01T06:24:46;19.80;99.90
40255;DHT22;25973;52.368;4.940;2022-07-01T06:27:12;19.80;99.90
40255;DHT22;25973;52.368;4.940;2022-07-01T06:29:37;19.70;99.90
40255;DHT22;25973;52.368;4.940;2022-07-01T06:32:07;19.80;99.90
40255;DHT22;25973;52.368;4.940;2022-07-01T06:34:34;20.10;99.90
40255;DHT22;25973;52.368;4.940;2022-07-01T06:36:59;20.40;99.90
40255;DHT22;25973;52.368;4.940;2022-07-01T06:39:26;21.10;99.90
40255;DHT22;25973;52.368;4.940;2022-07-01T06:41:52;22.10;99.90
40255;DHT22;25973;52.368;4.940;2022-07-01T06:44:18;23.20;99.90
40255;DHT22;25973;52.368;4.940;2022-07-01T06:46:43;24.30;99.90
40255;DHT22;25973;52.368;4.940;2022-07-01T06:49:09;24.80;99.90
40255;DHT22;25973;52.368;4.940;2022-07-01T06:51:35;25.20;99.90
40255;DHT22;25973;52.368;4.940;2022-07-01T06:54:00;25.80;99.90
40255;DHT22;25973;52.368;4.940;2022-07-01T06:56:26;26.20;99.70
40255;DHT22;25973;52.368;4.940;2022-07-01T06:58:51;26.10;99.30
40255;DHT22;25973;52.368;4.940;2022-07-01T07:01:17;26.30;99.00
40255;DHT22;25973;52.368;4.940;2022-07-01T07:03:43;26.20;98.50
40255;DHT22;25973;52.368;4.940;2022-07-01T07:06:09;26.40;98.50
40255;DHT22;25973;52.368;4.940;2022-07-01T07:08:34;26.60;98.30
40255;DHT22;25973;52.368;4.940;2022-07-01T07:11:00;26.40;97.60
40255;DHT22;25973;52.368;4.940;2022-07-01T07:13:26;26.30;98.00
40255;DHT22;25973;52.368;4.940;2022-07-01T07:15:51;26.20;98.00
40255;DHT22;25973;52.368;4.940;2022-07-01T07:18:18;26.30;98.40
40255;DHT22;25973;52.368;4.940;2022-07-01T07:20:43;26.70;98.20
40255;DHT22;25973;52.368;4.940;2022-07-01T07:23:09;27.50;97.40
40255;DHT22;25973;52.368;4.940;2022-07-01T07:25:35;28.40;95.40
40255;DHT22;25973;52.368;4.940;2022-07-01T07:28:00;29.00;94.80
40255;DHT22;25973;52.368;4.940;2022-07-01T07:30:26;29.00;94.10
40255;DHT22;25973;52.368;4.940;2022-07-01T07:32:51;28.70;93.70
40255;DHT22;25973;52.368;4.940;2022-07-01T07:35:17;28.50;93.50
40255;DHT22;25973;52.368;4.940;2022-07-01T07:37:43;28.10;94.10
40255;DHT22;25973;52.368;4.940;2022-07-01T07:40:11;27.90;94.30
40255;DHT22;25973;52.368;4.940;2022-07-01T07:42:39;28.00;94.10
40255;DHT22;25973;52.368;4.940;2022-07-01T07:45:06;28.50;94.40
40255;DHT22;25973;52.368;4.940;2022-07-01T07:47:33;29.20;93.30
40255;DHT22;25973;52.368;4.940;2022-07-01T07:49:58;30.20;92.40
40255;DHT22;25973;52.368;4.940;2022-07-01T07:52:36;31.10;91.40
40255;DHT22;25973;52.368;4.940;2022-07-01T07:55:03;31.50;91.10
40255;DHT22;25973;52.368;4.940;2022-07-01T07:57:29;32.00;90.20
40255;DHT22;25973;52.368;4.940;2022-07-01T07:59:58;32.00;89.00
40255;DHT22;25973;52.368;4.940;2022-07-01T08:02:24;31.80;89.50
40255;DHT22;25973;52.368;4.940;2022-07-01T08:04:49;32.00;88.40
40255;DHT22;25973;52.368;4.940;2022-07-01T08:07:15;32.00;88.50
40255;DHT22;25973;52.368;4.940;2022-07-01T08:09:40;31.70;86.90
40255;DHT22;25973;52.368;4.940;2022-07-01T08:12:11;31.20;87.20
40255;DHT22;25973;52.368;4.940;2022-07-01T08:14:37;30.70;87.10
40255;DHT22;25973;52.368;4.940;2022-07-01T08:17:03;30.20;88.40
40255;DHT22;25973;52.368;4.940;2022-07-01T08:19:28;29.80;89.70
40255;DHT22;25973;52.368;4.940;2022-07-01T08:21:54;29.30;90.20
40255;DHT22;25973;52.368;4.940;2022-07-01T08:24:19;29.00;90.30
40255;DHT22;25973;52.368;4.940;2022-07-01T08:26:45;28.50;90.50
40255;DHT22;25973;52.368;4.940;2022-07-01T08:29:11;28.00;90.90
40255;DHT22;25973;52.368;4.940;2022-07-01T08:31:36;27.40;91.40
40255;DHT22;25973;52.368;4.940;2022-07-01T08:34:02;26.80;92.10
40255;DHT22;25973;52.368;4.940;2022-07-01T08:36:27;26.20;91.80
40255;DHT22;25973;52.368;4.940;2022-07-01T08:38:53;25.60;93.00
40255;DHT22;25973;52.368;4.940;2022-07-01T08:41:18;24.90;93.70
40255;DHT22;25973;52.368;4.940;2022-07-01T08:43:45;24.20;95.70
40255;DHT22;25973;52.368;4.940;2022-07-01T08:46:11;23.50;97.00
40255;DHT22;25973;52.368;4.940;2022-07-01T08:48:37;23.00;98.90
40255;DHT22;25973;52.368;4.940;2022-07-01T08:51:06;22.40;99.90
40255;DHT22;25973;52.368;4.940;2022-07-01T08:53:32;21.90;99.90
40255;DHT22;25973;52.368;4.940;2022-07-01T08:55:58;21.40;99.90
40255;DHT22;25973;52.368;4.940;2022-07-01T08:58:42;21.10;99.90
40255;DHT22;25973;52.368;4.940;2022-07-01T09:01:19;20.70;99.90
40255;DHT22;25973;52.368;4.940;2022-07-01T09:03:49;20.30;99.90
40255;DHT22;25973;52.368;4.940;2022-07-01T09:06:23;20.00;99.90
40255;DHT22;25973;52.368;4.940;2022-07-01T09:08:49;19.70;99.90
40255;DHT22;25973;52.368;4.940;2022-07-01T09:11:23;19.50;99.90
40255;DHT22;25973;52.368;4.940;2022-07-01T09:14:07;19.30;99.90
40255;DHT22;25973;52.368;4.940;2022-07-01T09:16:53;19.10;99.90
40255;DHT22;25973;52.368;4.940;2022-07-01T09:19:21;19.00;99.90
40255;DHT22;25973;52.368;4.940;2022-07-01T09:21:48;19.00;99.90
40255;DHT22;25973;52.368;4.940;2022-07-01T09:26:56;19.00;99.90
40255;DHT22;25973;52.368;4.940;2022-07-01T09:29:30;19.10;99.90
40255;DHT22;25973;52.368;4.940;2022-07-01T09:31:57;19.40;99.90
40255;DHT22;25973;52.368;4.940;2022-07-01T09:34:24;19.70;99.90
40255;DHT22;25973;52.368;4.940;2022-07-01T09:36:56;20.00;99.90
40255;DHT22;25973;52.368;4.940;2022-07-01T09:39:23;20.20;99.90
40255;DHT22;25973;52.368;4.940;2022-07-01T09:41:49;20.40;99.90
40255;DHT22;25973;52.368;4.940;2022-07-01T09:44:14;20.60;99.90
40255;DHT22;25973;52.368;4.940;2022-07-01T09:46:54;20.90;99.90
40255;DHT22;25973;52.368;4.940;2022-07-01T09:49:20;21.10;99.90
40255;DHT22;25973;52.368;4.940;2022-07-01T09:51:46;21.30;99.90
40255;DHT22;25973;52.368;4.940;2022-07-01T09:54:14;21.50;99.90
40255;DHT22;25973;52.368;4.940;2022-07-01T09:56:40;21.60;99.90
40255;DHT22;25973;52.368;4.940;2022-07-01T09:59:05;21.60;99.90
40255;DHT22;25973;52.368;4.940;2022-07-01T10:01:31;21.70;99.90
40255;DHT22;25973;52.368;4.940;2022-07-01T10:03:59;21.70;99.90
40255;DHT22;25973;52.368;4.940;2022-07-01T10:06:49;21.80;99.90
40255;DHT22;25973;52.368;4.940;2022-07-01T10:09:25;21.80;99.90
40255;DHT22;25973;52.368;4.940;2022-07-01T10:14:38;22.10;99.90
40255;DHT22;25973;52.368;4.940;2022-07-01T10:17:05;22.10;99.90
40255;DHT22;25973;52.368;4.940;2022-07-01T10:19:31;22.30;99.90
40255;DHT22;25973;52.368;4.940;2022-07-01T10:22:26;22.30;99.90
40255;DHT22;25973;52.368;4.940;2022-07-01T10:24:52;22.10;99.90
40255;DHT22;25973;52.368;4.940;2022-07-01T10:27:23;21.90;99.90
40255;DHT22;25973;52.368;4.940;2022-07-01T10:30:15;21.40;99.90
40255;DHT22;25973;52.368;4.940;2022-07-01T10:32:47;21.00;99.90
40255;DHT22;25973;52.368;4.940;2022-07-01T10:35:14;20.80;99.90
40255;DHT22;25973;52.368;4.940;2022-07-01T10:37:59;20.60;99.90
40255;DHT22;25973;52.368;4.940;2022-07-01T10:40:44;20.40;99.90
40255;DHT22;25973;52.368;4.940;2022-07-01T10:43:32;20.20;99.90
40255;DHT22;25973;52.368;4.940;2022-07-01T10:46:01;19.90;99.90
40255;DHT22;25973;52.368;4.940;2022-07-01T10:48:31;19.60;99.90
40255;DHT22;25973;52.368;4.940;2022-07-01T10:50:56;19.40;99.90
40255;DHT22;25973;52.368;4.940;2022-07-01T10:53:22;19.30;99.90
40255;DHT22;25973;52.368;4.940;2022-07-01T10:55:50;19.40;99.90
40255;DHT22;25973;52.368;4.940;2022-07-01T10:58:16;19.50;99.90
40255;DHT22;25973;52.368;4.940;2022-07-01T11:00:45;19.60;99.90
40255;DHT22;25973;52.368;4.940;2022-07-01T11:03:17;19.70;99.90
40255;DHT22;25973;52.368;4.940;2022-07-01T11:05:44;19.90;99.90
40255;DHT22;25973;52.368;4.940;2022-07-01T11:08:10;20.00;99.90
40255;DHT22;25973;52.368;4.940;2022-07-01T11:10:38;20.10;99.90
40255;DHT22;25973;52.368;4.940;2022-07-01T11:13:04;20.30;99.90
40255;DHT22;25973;52.368;4.940;2022-07-01T11:15:30;20.50;99.90
40255;DHT22;25973;52.368;4.940;2022-07-01T11:17:57;20.60;99.90
40255;DHT22;25973;52.368;4.940;2022-07-01T11:20:25;20.80;99.90
40255;DHT22;25973;52.368;4.940;2022-07-01T11:22:53;20.90;99.90
40255;DHT22;25973;52.368;4.940;2022-07-01T11:25:20;20.90;99.90
40255;DHT22;25973;52.368;4.940;2022-07-01T11:27:48;20.90;99.90
40255;DHT22;25973;52.368;4.940;2022-07-01T11:30:14;20.90;99.90
40255;DHT22;25973;52.368;4.940;2022-07-01T11:32:48;21.00;99.90
40255;DHT22;25973;52.368;4.940;2022-07-01T11:35:16;21.10;99.90
40255;DHT22;25973;52.368;4.940;2022-07-01T11:38:15;21.20;99.90
40255;DHT22;25973;52.368;4.940;2022-07-01T11:41:03;21.40;99.90
40255;DHT22;25973;52.368;4.940;2022-07-01T11:43:33;21.50;99.90
40255;DHT22;25973;52.368;4.940;2022-07-01T11:46:01;21.60;99.90
40255;DHT22;25973;52.368;4.940;2022-07-01T11:48:48;21.70;99.90
40255;DHT22;25973;52.368;4.940;2022-07-01T11:51:21;21.70;99.90
40255;DHT22;25973;52.368;4.940;2022-07-01T11:53:49;21.70;99.90
40255;DHT22;25973;52.368;4.940;2022-07-01T11:56:16;21.70;99.90
40255;DHT22;25973;52.368;4.940;2022-07-01T11:58:48;21.60;99.90
40255;DHT22;25973;52.368;4.940;2022-07-01T12:01:33;21.50;99.90
40255;DHT22;25973;52.368;4.940;2022-07-01T12:04:01;21.50;99.90
40255;DHT22;25973;52.368;4.940;2022-07-01T12:06:28;21.50;99.90
40255;DHT22;25973;52.368;4.940;2022-07-01T12:08:54;21.50;99.90
40255;DHT22;25973;52.368;4.940;2022-07-01T12:11:22;21.60;99.90
40255;DHT22;25973;52.368;4.940;2022-07-01T12:13:49;21.60;99.90
40255;DHT22;25973;52.368;4.940;2022-07-01T12:16:15;21.60;99.90
40255;DHT22;25973;52.368;4.940;2022-07-01T12:19:00;21.50;99.90
40255;DHT22;25973;52.368;4.940;2022-07-01T12:21:28;21.50;99.90
40255;DHT22;25973;52.368;4.940;2022-07-01T12:24:08;21.50;99.90
40255;DHT22;25973;52.368;4.940;2022-07-01T12:26:34;21.60;99.90
40255;DHT22;25973;52.368;4.940;2022-07-01T12:29:00;21.60;99.90
40255;DHT22;25973;52.368;4.940;2022-07-01T12:31:26;21.50;99.90
40255;DHT22;25973;52.368;4.940;2022-07-01T12:33:52;21.40;99.90
40255;DHT22;25973;52.368;4.940;2022-07-01T12:36:18;21.40;99.90
40255;DHT22;25973;52.368;4.940;2022-07-01T12:38:43;21.30;99.90
40255;DHT22;25973;52.368;4.940;2022-07-01T12:41:29;21.10;99.90
40255;DHT22;25973;52.368;4.940;2022-07-01T12:43:55;21.10;99.90
40255;DHT22;25973;52.368;4.940;2022-07-01T12:46:28;21.00;99.90
40255;DHT22;25973;52.368;4.940;2022-07-01T12:48:55;21.00;99.90
40255;DHT22;25973;52.368;4.940;2022-07-01T12:51:20;20.90;99.90
40255;DHT22;25973;52.368;4.940;2022-07-01T12:53:46;20.90;99.90
40255;DHT22;25973;52.368;4.940;2022-07-01T12:56:38;20.90;99.90
40255;DHT22;25973;52.368;4.940;2022-07-01T12:59:04;20.80;99.90
40255;DHT22;25973;52.368;4.940;2022-07-01T13:01:29;20.60;99.90
40255;DHT22;25973;52.368;4.940;2022-07-01T13:03:55;20.50;99.90
40255;DHT22;25973;52.368;4.940;2022-07-01T13:06:20;20.40;99.90
40255;DHT22;25973;52.368;4.940;2022-07-01T13:08:46;20.30;99.90
40255;DHT22;25973;52.368;4.940;2022-07-01T13:11:14;20.30;99.90
40255;DHT22;25973;52.368;4.940;2022-07-01T13:13:40;20.30;99.90
40255;DHT22;25973;52.368;4.940;2022-07-01T13:16:05;20.30;99.90
40255;DHT22;25973;52.368;4.940;2022-07-01T13:18:31;20.40;99.90
40255;DHT22;25973;52.368;4.940;2022-07-01T13:20:57;20.40;99.90
40255;DHT22;25973;52.368;4.940;2022-07-01T13:23:22;20.40;99.90
40255;DHT22;25973;52.368;4.940;2022-07-01T13:25:48;20.50;99.90
40255;DHT22;25973;52.368;4.940;2022-07-01T13:28:13;20.60;99.90
40255;DHT22;25973;52.368;4.940;2022-07-01T13:30:39;20.70;99.90
40255;DHT22;25973;52.368;4.940;2022-07-01T13:33:04;20.70;99.90
40255;DHT22;25973;52.368;4.940;2022-07-01T13:35:30;20.70;99.90
40255;DHT22;25973;52.368;4.940;2022-07-01T13:37:56;20.80;99.90
40255;DHT22;25973;52.368;4.940;2022-07-01T13:40:21;20.70;99.90
40255;DHT22;25973;52.368;4.940;2022-07-01T13:42:47;20.70;99.90
40255;DHT22;25973;52.368;4.940;2022-07-01T13:45:13;20.60;99.90
40255;DHT22;25973;52.368;4.940;2022-07-01T13:47:39;20.60;99.90
40255;DHT22;25973;52.368;4.940;2022-07-01T13:50:05;20.50;99.90
40255;DHT22;25973;52.368;4.940;2022-07-01T13:52:30;20.60;99.90
40255;DHT22;25973;52.368;4.940;2022-07-01T13:54:57;20.50;99.90
40255;DHT22;25973;52.368;4.940;2022-07-01T13:57:23;20.50;99.90
40255;DHT22;25973;52.368;4.940;2022-07-01T13:59:48;20.50;99.90
40255;DHT22;25973;52.368;4.940;2022-07-01T14:02:14;20.60;99.90
40255;DHT22;25973;52.368;4.940;2022-07-01T14:04:41;20.80;99.90
40255;DHT22;25973;52.368;4.940;2022-07-01T14:07:06;20.90;99.90
40255;DHT22;25973;52.368;4.940;2022-07-01T14:09:33;20.90;99.90
40255;DHT22;25973;52.368;4.940;2022-07-01T14:11:58;21.00;99.90
40255;DHT22;25973;52.368;4.940;2022-07-01T14:14:24;21.00;99.90
40255;DHT22;25973;52.368;4.940;2022-07-01T14:16:50;21.00;99.90
40255;DHT22;25973;52.368;4.940;2022-07-01T14:19:15;21.00;99.90
40255;DHT22;25973;52.368;4.940;2022-07-01T14:21:41;21.00;99.90
40255;DHT22;25973;52.368;4.940;2022-07-01T14:24:06;21.00;99.90
40255;DHT22;25973;52.368;4.940;2022-07-01T14:26:32;21.00;99.90
40255;DHT22;25973;52.368;4.940;2022-07-01T14:29:01;20.90;99.90
40255;DHT22;25973;52.368;4.940;2022-07-01T14:31:26;20.90;99.90
40255;DHT22;25973;52.368;4.940;2022-07-01T14:33:52;20.90;99.90
40255;DHT22;25973;52.368;4.940;2022-07-01T14:36:17;20.90;99.90
40255;DHT22;25973;52.368;4.940;2022-07-01T14:38:43;21.00;99.90
40255;DHT22;25973;52.368;4.940;2022-07-01T14:41:09;20.90;99.90
40255;DHT22;25973;52.368;4.940;2022-07-01T14:43:34;20.90;99.90
40255;DHT22;25973;52.368;4.940;2022-07-01T14:46:00;20.90;99.90
40255;DHT22;25973;52.368;4.940;2022-07-01T14:48:29;20.90;99.90
40255;DHT22;25973;52.368;4.940;2022-07-01T14:50:55;20.90;99.90
40255;DHT22;25973;52.368;4.940;2022-07-01T14:53:20;20.90;99.90
40255;DHT22;25973;52.368;4.940;2022-07-01T14:55:46;21.00;99.90
40255;DHT22;25973;52.368;4.940;2022-07-01T14:58:11;21.10;99.90
40255;DHT22;25973;52.368;4.940;2022-07-01T15:00:37;21.20;99.90
40255;DHT22;25973;52.368;4.940;2022-07-01T15:03:04;21.20;99.90
40255;DHT22;25973;52.368;4.940;2022-07-01T15:05:29;21.30;99.90
40255;DHT22;25973;52.368;4.940;2022-07-01T15:07:55;21.30;99.90
40255;DHT22;25973;52.368;4.940;2022-07-01T15:10:21;21.20;99.90
40255;DHT22;25973;52.368;4.940;2022-07-01T15:12:46;21.30;99.90
40255;DHT22;25973;52.368;4.940;2022-07-01T15:15:12;21.30;99.90
40255;DHT22;25973;52.368;4.940;2022-07-01T15:17:42;21.30;99.90
40255;DHT22;25973;52.368;4.940;2022-07-01T15:20:09;21.20;99.90
40255;DHT22;25973;52.368;4.940;2022-07-01T15:22:35;21.20;99.90
40255;DHT22;25973;52.368;4.940;2022-07-01T15:25:00;21.20;99.90
40255;DHT22;25973;52.368;4.940;2022-07-01T15:27:26;21.20;99.90
40255;DHT22;25973;52.368;4.940;2022-07-01T15:29:51;21.30;99.90
40255;DHT22;25973;52.368;4.940;2022-07-01T15:32:17;21.30;99.90
40255;DHT22;25973;52.368;4.940;2022-07-01T15:34:42;21.40;99.90
40255;DHT22;25973;52.368;4.940;2022-07-01T15:37:08;21.50;99.90